Latest Weather Observations for Gunnedah Airport

IDN60801

Issued at 1:33 pm EST Wednesday 29 June 2016 (issued every 30 minutes, with the page automatically refreshed every 10 minutes)

About weather observations | Map of weather stations | Latest weather observations for NSW | Other Formats
Station Details ID: 055202 Name: GUNNEDAH AIRPORT AWS Lat: -30.95 Lon: 150.25 Height: 262.57 m
Data from the previous 72 hours. | See also: Recent months at Gunnedah Airport
Date/Time
EST
Temp
°C
App
Temp
°C
Dew
Point
°C
Rel
Hum
%
Delta-T
°C
Wind Press
QNH
hPa
Press
MSL
hPa
Rain since
9am
mm
Dir  Spd
km/h
Gust
km/h
Spd
kts
Gust
kts
29/01:30pm 12.8 9.9 4.8 58 3.7 E 9 13 5 7 1025.9 1026.1 0.0
29/01:00pm 12.3 9.7 4.0 57 3.8 SE 7 11 4 6 1026.4 1026.5 0.0
29/12:30pm 11.6 9.1 5.0 64 3.1 SE 7 11 4 6 1026.9 1027.1 0.0
29/12:00pm 10.5 7.6 4.9 68 2.6 SE 9 11 5 6 1027.5 1027.7 0.0
29/11:30am 9.5 6.3 4.9 73 2.1 SE 11 15 6 8 1027.8 1028.0 0.0
29/11:00am 8.2 5.0 5.0 80 1.4 SE 11 15 6 8 1028.3 1028.5 0.0
29/10:30am 6.6 3.3 4.3 85 1.0 ESE 11 15 6 8 1028.6 1028.8 0.0
29/10:00am 5.1 1.2 3.4 89 0.7 ESE 13 17 7 9 1028.8 1029.0 0.0
29/09:30am 4.7 0.8 3.4 91 0.5 SE 13 17 7 9 1029.0 1029.2 0.0
29/09:00am 3.4 -0.3 2.5 94 0.4 SE 11 13 6 7 1028.8 1029.0 0.0
29/08:30am 2.6 -1.2 1.7 94 0.4 ESE 11 15 6 8 1028.6 1028.8 0.0
29/08:00am 1.6 -2.3 0.9 95 0.3 SE 11 13 6 7 1028.5 1028.7 0.0
29/07:30am -0.4 -4.3 -1.2 94 0.3 SE 9 13 5 7 1028.3 1028.5 0.0
29/07:00am -1.9 -6.0 -2.7 94 0.2 SSE 9 11 5 6 1028.3 1028.5 0.0
29/06:30am -2.1 -5.8 -3.1 93 0.2 SE 7 7 4 4 1028.0 1028.2 0.0
29/06:00am -1.4 -4.1 -2.4 93 0.3 SE 2 9 1 5 1027.6 1027.8 0.0
29/05:30am -0.8 -4.3 -1.6 94 0.2 ESE 7 9 4 5 1027.3 1027.5 0.0
29/05:00am -0.3 -3.6 -1.1 94 0.3 SSE 6 7 3 4 1027.4 1027.6 0.0
29/04:30am -1.8 -4.5 -2.8 93 0.3 SE 2 11 1 6 1027.3 1027.5 0.0
29/04:00am -0.8 -3.0 -1.6 94 0.2 CALM 0 0 0 0 1027.2 1027.4 0.0
29/03:30am -0.7 -2.9 -1.5 94 0.2 CALM 0 0 0 0 1027.2 1027.4 0.0
29/03:00am -1.0 -3.3 -2.0 93 0.3 CALM 0 0 0 0 1027.2 1027.4 0.0
29/02:30am -1.0 -3.3 -2.0 93 0.3 CALM 0 0 0 0 1027.2 1027.4 0.0
29/02:00am -0.5 -2.7 -1.5 93 0.3 CALM 0 0 0 0 1027.5 1027.7 0.0
29/01:30am -0.5 -2.7 -1.5 93 0.3 CALM 0 0 0 0 1027.5 1027.7 0.0
29/01:00am 0.2 -1.9 -0.8 93 0.4 CALM 0 0 0 0 1027.8 1028.0 0.0
29/12:30am -0.1 -2.3 -1.4 91 0.5 CALM 0 0 0 0 1027.8 1028.0 0.0
29/12:00am 1.3 -0.7 0.1 92 0.4 CALM 0 0 0 0 1028.0 1028.2 0.0
 
Date/Time
EST
Temp
°C
App
Temp
°C
Dew
Point
°C
Rel
Hum
%
Delta-T
°C
Wind Press
QNH
hPa
Press
MSL
hPa
Rain since
9am
mm
Dir  Spd
km/h
Gust
km/h
Spd
kts
Gust
kts
28/11:30pm 2.2 0.4 1.2 93 0.4 CALM 0 0 0 0 1028.0 1028.2 0.0
28/11:00pm 2.3 0.5 1.1 92 0.5 CALM 0 0 0 0 1028.0 1028.2 0.0
28/10:30pm 2.7 -0.2 1.2 90 0.6 E 6 6 3 3 1028.3 1028.5 0.0
28/10:00pm 3.1 1.0 1.5 89 0.6 N 2 7 1 4 1028.1 1028.3 0.0
28/09:30pm 3.7 0.3 1.6 86 0.8 NNE 9 11 5 6 1028.1 1028.3 0.0
28/09:00pm 3.8 0.7 1.5 85 0.9 N 7 11 4 6 1027.8 1028.0 0.0
28/08:30pm 4.2 0.9 2.2 87 0.8 NNE 9 13 5 7 1027.6 1027.8 0.0
28/08:00pm 4.3 0.2 2.3 87 0.8 NNE 13 15 7 8 1027.5 1027.7 0.0
28/07:30pm 5.5 2.7 2.3 80 1.3 E 6 7 3 4 1027.4 1027.6 0.0
28/07:00pm 7.1 3.5 3.0 75 1.7 WSW 11 15 6 8 1027.0 1027.2 0.0
28/06:30pm 7.3 3.8 3.5 77 1.6 W 11 13 6 7 1026.8 1027.0 0.0
28/06:00pm 8.1 4.5 3.2 71 2.1 WSW 11 15 6 8 1026.3 1026.4 0.0
28/05:30pm 9.0 4.7 3.0 66 2.6 WSW 15 19 8 10 1025.7 1025.9 0.0
28/05:00pm 10.5 6.9 3.1 60 3.2 WSW 11 15 6 8 1025.4 1025.6 0.0
28/04:30pm 12.2 8.6 2.9 53 4.1 WSW 11 13 6 7 1025.2 1025.4 0.0
28/04:00pm 13.7 11.0 3.5 50 4.6 SSW 7 9 4 5 1024.9 1025.1 0.0
28/03:30pm 13.5 10.9 3.0 49 4.7 W 6 11 3 6 1024.7 1024.9 0.0
28/03:00pm 13.4 10.7 3.5 51 4.5 NE 7 11 4 6 1024.4 1024.6 0.0
28/02:30pm 13.2 10.5 3.6 52 4.4 ENE 7 15 4 8 1024.4 1024.6 0.0
28/02:00pm 13.1 10.4 3.5 52 4.3 N 7 13 4 7 1024.4 1024.6 0.0
28/01:30pm 13.3 11.9 3.7 52 4.4 CALM 0 9 0 5 1024.3 1024.5 0.0
28/01:00pm 13.3 10.7 3.1 50 4.6 NNW 6 9 3 5 1024.2 1024.4 0.0
28/12:30pm 12.7 9.1 3.1 52 4.3 S 11 19 6 10 1024.3 1024.5 0.0
28/12:00pm 12.2 9.4 3.4 55 3.9 S 7 13 4 7 1024.8 1025.0 0.0
28/11:30am 11.8 8.6 3.3 56 3.8 SE 9 17 5 9 1025.1 1025.3 0.0
28/11:00am 11.3 7.7 3.1 57 3.6 S 11 20 6 11 1025.3 1025.5 0.0
28/10:30am 10.7 7.5 2.8 58 3.5 SSW 9 17 5 9 1025.4 1025.6 0.0
28/10:00am 10.3 6.7 2.7 59 3.3 SSW 11 17 6 9 1025.5 1025.7 0.0
28/09:30am 9.9 5.5 2.5 60 3.2 S 15 22 8 12 1025.4 1025.6 0.0
28/09:00am 9.4 8.0 3.8 68 2.5 CALM 0 0 0 0 1025.1 1025.3 0.2
28/08:30am 7.7 6.1 2.6 70 2.2 CALM 0 0 0 0 1025.0 1025.2 0.2
28/08:00am 5.8 4.3 2.8 81 1.2 CALM 0 0 0 0 1024.6 1024.8 0.2
28/07:30am 3.0 1.0 -0.3 79 1.2 CALM 0 6 0 3 1024.5 1024.7 0.2
28/07:00am 4.1 0.9 0.6 78 1.4 W 7 11 4 6 1024.2 1024.4 0.2
28/06:30am 6.0 1.4 1.7 74 1.8 WSW 15 20 8 11 1023.6 1023.8 0.2
28/06:00am 5.1 0.0 1.0 75 1.6 WSW 17 24 9 13 1023.2 1023.4 0.2
28/05:30am 4.5 0.1 0.6 76 1.5 W 13 17 7 9 1022.8 1022.9 0.2
28/05:00am 4.2 -0.2 0.4 76 1.5 W 13 17 7 9 1022.6 1022.7 0.2
28/04:30am 4.5 -0.2 1.0 78 1.4 W 15 19 8 10 1022.4 1022.5 0.2
28/04:00am 5.6 1.4 1.5 75 1.6 WNW 13 17 7 9 1022.5 1022.6 0.2
28/03:30am 5.4 1.9 1.3 75 1.6 WNW 9 13 5 7 1022.4 1022.5 0.2
28/03:00am 6.1 2.7 1.8 74 1.8 WNW 9 15 5 8 1022.4 1022.5 0.2
28/02:30am 6.4 2.7 2.3 75 1.7 WNW 11 15 6 8 1022.3 1022.4 0.2
28/02:00am 5.5 1.8 2.2 79 1.4 WNW 11 19 6 10 1022.1 1022.3 0.2
28/01:30am 5.2 1.6 2.7 84 1.0 NW 11 15 6 8 1021.9 1022.1 0.2
28/01:00am 5.2 1.6 2.7 84 1.0 NW 11 15 6 8 1021.7 1021.9 0.2
28/12:30am 4.7 1.4 2.6 86 0.9 NNW 9 11 5 6 1021.8 1022.0 0.2
28/12:00am 5.5 1.1 2.7 82 1.2 WNW 15 20 8 11 1021.5 1021.7 0.2
 
Date/Time
EST
Temp
°C
App
Temp
°C
Dew
Point
°C
Rel
Hum
%
Delta-T
°C
Wind Press
QNH
hPa
Press
MSL
hPa
Rain since
9am
mm
Dir  Spd
km/h
Gust
km/h
Spd
kts
Gust
kts
27/11:30pm 6.0 2.0 3.0 81 1.3 WNW 13 17 7 9 1021.6 1021.8 0.2
27/11:00pm 5.6 0.9 3.1 84 1.0 WNW 17 20 9 11 1021.7 1021.9 0.2
27/10:30pm 5.5 1.5 3.0 84 1.0 WNW 13 17 7 9 1021.5 1021.7 0.2
27/10:00pm 5.4 0.7 3.1 85 1.0 NNW 17 20 9 11 1021.4 1021.6 0.2
27/09:30pm 5.5 2.2 2.7 82 1.2 NW 9 13 5 7 1021.3 1021.5 0.2
27/09:00pm 5.8 1.0 2.6 80 1.3 W 17 22 9 12 1021.2 1021.4 0.2
27/08:30pm 5.0 -0.2 2.2 82 1.1 W 19 24 10 13 1021.0 1021.2 0.2
27/08:00pm 5.3 0.1 2.5 82 1.2 W 19 22 10 12 1020.7 1020.9 0.2
27/07:30pm 5.2 0.3 2.0 80 1.3 WNW 17 20 9 11 1020.5 1020.7 0.2
27/07:00pm 5.8 0.9 2.3 78 1.4 W 17 22 9 12 1020.3 1020.5 0.2
27/06:30pm 6.0 1.1 2.3 77 1.5 W 17 20 9 11 1020.1 1020.3 0.2
27/06:00pm 7.1 1.7 2.6 73 1.9 WSW 20 26 11 14 1019.6 1019.7 0.2
27/05:30pm 7.5 2.4 2.8 72 2.0 WSW 19 22 10 12 1019.1 1019.2 0.2
27/05:00pm 8.2 2.9 2.9 69 2.3 WSW 20 28 11 15 1018.9 1019.0 0.2
27/04:30pm 8.5 2.4 2.5 66 2.6 WSW 24 33 13 18 1018.3 1018.4 0.2
27/04:00pm 8.5 3.2 2.9 68 2.4 WSW 20 26 11 14 1017.8 1018.0 0.2
27/03:30pm 8.6 2.5 2.8 67 2.5 WSW 24 33 13 18 1017.5 1017.7 0.2
27/03:00pm 8.6 3.7 4.0 73 2.0 WNW 19 26 10 14 1017.0 1017.2 0.2
27/02:30pm 9.1 4.4 3.3 67 2.5 WNW 17 24 9 13 1016.7 1016.8 0.2
27/02:00pm 8.8 4.2 3.8 71 2.2 WNW 17 22 9 12 1016.5 1016.6 0.2
27/01:30pm 8.9 3.8 3.3 68 2.4 WNW 19 24 10 13 1016.5 1016.6 0.2
27/01:00pm 8.6 3.7 4.0 73 2.0 WNW 19 26 10 14 1016.6 1016.7 0.2
27/12:30pm 9.4 4.8 3.8 68 2.5 WNW 17 24 9 13 1016.8 1017.0 0.2
27/12:00pm 8.9 5.1 4.1 72 2.1 WNW 13 19 7 10 1017.2 1017.4 0.2
27/11:30am 8.0 4.1 3.5 73 2.0 WNW 13 20 7 11 1017.7 1017.9 0.2
27/11:00am 7.8 4.4 3.8 76 1.7 W 11 15 6 8 1018.1 1018.3 0.2
27/10:30am 7.5 4.4 3.4 75 1.8 WNW 9 13 5 7 1018.3 1018.4 0.2
27/10:00am 6.8 2.6 3.6 80 1.4 WSW 15 19 8 10 1018.5 1018.6 0.2
27/09:30am 6.7 3.0 4.2 84 1.1 W 13 17 7 9 1018.5 1018.6 0.2
27/09:00am 6.5 2.4 4.2 85 1.0 W 15 19 8 10 1018.3 1018.4 5.8
27/08:30am 6.2 3.6 4.2 87 0.9 WNW 7 11 4 6 1017.8 1018.0 5.8
27/08:00am 5.8 4.5 4.1 89 0.7 CALM 0 0 0 0 1017.6 1017.8 5.8
27/07:30am 5.7 3.7 4.3 91 0.6 W 4 7 2 4 1017.5 1017.7 5.8
27/07:00am 5.5 4.2 4.2 91 0.6 CALM 0 6 0 3 1017.1 1017.3 5.8
27/06:30am 5.7 3.1 4.3 91 0.6 W 7 13 4 7 1017.0 1017.2 5.6
27/06:00am 5.9 2.3 4.9 93 0.4 W 13 17 7 9 1016.8 1017.0 4.8
27/05:30am 5.7 4.5 4.7 93 0.4 CALM 0 0 0 0 1016.3 1016.4 4.2
27/05:00am 5.6 4.4 4.4 92 0.5 CALM 0 0 0 0 1015.7 1015.8 3.6
27/04:30am 5.9 4.7 4.5 91 0.6 CALM 0 0 0 0 1015.8 1015.9 2.2
27/04:00am 5.9 4.7 4.5 91 0.6 CALM 0 0 0 0 1015.8 1015.9 0.8
27/03:30am 6.0 4.8 4.6 91 0.6 CALM 0 0 0 0 1015.6 1015.7 0.8
27/03:00am 6.0 4.8 4.6 91 0.6 CALM 0 0 0 0 1015.9 1016.0 0.6
27/02:30am 6.1 4.5 4.6 90 0.7 SSE 2 9 1 5 1016.1 1016.2 0.6
27/02:00am 6.2 5.0 4.5 89 0.7 CALM 0 0 0 0 1016.2 1016.3 0.2
27/01:30am 6.2 3.8 4.4 88 0.8 SW 6 11 3 6 1016.2 1016.3 0.0
27/01:00am 6.1 4.8 3.9 86 0.9 CALM 0 0 0 0 1016.0 1016.1 0.0
27/12:30am 6.3 3.2 3.6 83 1.2 ESE 9 13 5 7 1015.7 1015.8 0.0
27/12:00am 6.1 3.1 3.9 86 0.9 ESE 9 11 5 6 1015.9 1016.0 0.0
 
Date/Time
EST
Temp
°C
App
Temp
°C
Dew
Point
°C
Rel
Hum
%
Delta-T
°C
Wind Press
QNH
hPa
Press
MSL
hPa
Rain since
9am
mm
Dir  Spd
km/h
Gust
km/h
Spd
kts
Gust
kts
26/11:30pm 6.2 3.8 4.2 87 0.9 E 6 9 3 5 1016.2 1016.3 0.0
26/11:00pm 6.4 3.4 3.9 84 1.1 SE 9 11 5 6 1016.1 1016.2 0.0
26/10:30pm 6.0 3.0 4.2 88 0.8 SSE 9 11 5 6 1016.9 1017.1 0.0
26/10:00pm 5.7 3.1 4.0 89 0.7 SW 7 9 4 5 1017.6 1017.8 0.0
26/09:30pm 5.7 4.4 4.2 90 0.6 CALM 0 0 0 0 1017.6 1017.8 0.0
26/09:00pm 5.7 3.3 4.2 90 0.6 NE 6 7 3 4 1017.5 1017.7 0.0
26/08:30pm 5.5 3.7 3.5 87 0.8 W 2 6 1 3 1018.3 1018.4 0.0
26/08:00pm 5.5 4.1 3.5 87 0.8 CALM 0 6 0 3 1018.1 1018.3 0.0
26/07:30pm 5.8 3.6 3.6 86 0.9 NW 4 7 2 4 1018.1 1018.3 0.0
26/07:00pm 6.0 4.6 3.7 85 1.0 CALM 0 6 0 3 1017.8 1018.0 0.0
26/06:30pm 6.5 4.6 3.1 79 1.4 NNW 2 7 1 4 1017.8 1018.0 0.0
26/06:00pm 6.9 3.9 4.2 83 1.2 N 9 11 5 6 1017.7 1017.9 0.0
26/05:30pm 7.3 4.1 3.0 74 1.8 SSE 9 11 5 6 1016.9 1017.1 0.0
26/05:00pm 8.0 6.5 3.1 71 2.1 CALM 0 0 0 0 1018.0 1018.2 0.0
26/04:30pm 8.5 6.9 2.7 67 2.5 CALM 0 0 0 0 1017.9 1018.1 0.0
26/04:00pm 8.8 7.2 2.6 65 2.7 CALM 0 0 0 0 1017.4 1017.6 0.0
26/03:30pm 9.2 7.4 1.4 58 3.3 CALM 0 0 0 0 1016.9 1017.1 0.0
26/03:00pm 9.1 6.3 2.2 62 2.9 W 6 7 3 4 1017.3 1017.5 0.0
26/02:30pm 8.9 7.3 2.3 63 2.8 CALM 0 0 0 0 1017.7 1017.9 0.0
26/02:00pm 8.6 7.0 2.6 66 2.6 CALM 0 0 0 0 1017.8 1018.0 0.0

Other Formats:

Comma delimited format used in spreadsheet applications
http://www.bom.gov.au/fwo/IDN60801/IDN60801.95740.axf

JavaScript Object Notation format (JSON) in row-major order
http://www.bom.gov.au/fwo/IDN60801/IDN60801.95740.json